Rome, Italië

8:21 PM CEST op 29 augustus 2014 (GMT +0200)
Ciampino | Change Station
CLOSE
Current Station
Persoonlijk weerstation
Location: Ciampino, LAZIO
Geometrische hoogte: 348 ft
Nabije weerstations

Hoogte 348 ft 41.81 °N, 12.60 °E | Updated 5 minutes ago

Clear
Helder
79.0 °F
Voelt als 81 °F
N
3.1
Wind Variabel Wind van ZO
Gusts 4.5 mijl/u

Vandaag
Hoog -- | Laag -- °F
--% Kans op neerslag
Gisteren
Hoog -- | Laag -- °F
Precip. -- inches
6:32 AM 7:48 PM
Wassende halvemaan, 15% visible
Druk 29.95 inches
Zicht -9999.0 mijlen
Wolken
Warmteindex 81 °F
Dauwpunt 65 °F
Vochtigheid 63%
Neerslag 0.00 inches
Dikte sneeuw Niet beschikbaar.
UV Niet beschikbaar.
Pollen Niet beschikbaar.
Luchtkwaliteit Niet beschikbaar.
Flu Activity Niet beschikbaar.
METAR LIRE 291755Z 29005KT CAVOK 25/19 Q1014 RMK SKC VIS MIN 9999 WIND THR31 30005KT BLU

More Conditions Fewer Conditions

Druk 29.95 inches
Zicht -9999.0 mijlen
Wolken
Warmteindex 81 °F
Dauwpunt 65 °F
Vochtigheid 63%
Neerslag 0.00 inches
Dikte sneeuw Niet beschikbaar.
UV Niet beschikbaar.
Pollen Niet beschikbaar.
Luchtkwaliteit Niet beschikbaar.
Flu Activity Niet beschikbaar.
METAR LIRE 291755Z 29005KT CAVOK 25/19 Q1014 RMK SKC VIS MIN 9999 WIND THR31 30005KT BLU

More Conditions Fewer Conditions

10-Day Weather Forecast

Almanac

Astronomie

Aug. 29, 2014 Opkomst Ondergang
Werkelijke tijd 6:32 AM CEST 7:48 PM CEST
Burgerlijke schemering 6:03 AM CEST 8:17 PM CEST
Nautische schemering 5:28 AM CEST 8:51 PM CEST
Astronomische schemering 4:52 AM CEST 9:28 PM CEST
Maan 10:09 AM CEST 9:32 PM CEST
Golflengte van het zichtbare licht 14h 13m
Daglengte
13h 16m
Tomorrow will be 2m 40s shorter.
Wassende halvemaan, 15% of the Moon is Illuminated
Vandaag
Wassende halvemaan
sep 2
Eerste kwartier
sep 8
Volle maan
sep 15
Laatste kwartier
sep 24
Nieuw

Extremen vandaag

Country Highs Country Lows

Community

WunderPhotos

Upload Photos

1,748,310 foto’s ge-upload!

Nearby

Luchtkwaliteit

Not available.

Dikte sneeuw

Not available.

Aardbevingen

Stad Distance Mag. Time & Date
No recent earthquake activity has been reported nearby.
Minimum magnitude displayed is 2.5.

Watertemperatuur langs de kust

Plaats Temperatuur
Geen meldingen van stations

Nabije weerstations